createdAt,value
2018-10-11T00:00:29.290Z,28.10
2018-10-11T00:02:58.815Z,25.83
2018-10-11T00:05:28.038Z,26.30
2018-10-11T00:07:57.742Z,23.97
2018-10-11T00:10:27.491Z,24.47
2018-10-11T00:12:57.172Z,25.97
2018-10-11T00:15:26.421Z,27.03
2018-10-11T00:17:56.321Z,26.53
2018-10-11T00:20:25.401Z,29.00
2018-10-11T00:22:54.556Z,31.47
2018-10-11T00:25:23.829Z,30.60
2018-10-11T00:27:52.877Z,30.30
2018-10-11T00:30:22.674Z,31.13
2018-10-11T00:32:51.708Z,32.87
2018-10-11T00:35:20.884Z,31.33
2018-10-11T00:37:50.028Z,31.30
2018-10-11T00:40:19.098Z,28.27
2018-10-11T00:42:48.728Z,34.03
2018-10-11T00:45:17.875Z,30.37
2018-10-11T00:47:46.952Z,30.60
2018-10-11T00:50:16.026Z,29.83
2018-10-11T00:52:45.081Z,34.37
2018-10-11T00:55:14.182Z,34.03
2018-10-11T00:57:43.472Z,35.27
2018-10-11T01:00:12.731Z,38.77
2018-10-11T01:02:42.042Z,33.70
2018-10-11T01:05:11.181Z,33.50
2018-10-11T01:07:40.485Z,35.77
2018-10-11T01:10:09.889Z,38.83
2018-10-11T01:12:39.106Z,32.43
2018-10-11T01:15:08.239Z,39.83
2018-10-11T01:17:37.458Z,39.60
2018-10-11T01:20:06.617Z,34.60
2018-10-11T01:22:35.743Z,37.20
2018-10-11T01:25:04.874Z,35.83
2018-10-11T01:27:34.430Z,34.30
2018-10-11T01:30:03.592Z,41.17
2018-10-11T01:32:32.615Z,36.77
2018-10-11T01:35:01.816Z,42.93
2018-10-11T01:37:30.886Z,36.27
2018-10-11T01:40:00.015Z,38.40
2018-10-11T01:42:31.429Z,37.03
2018-10-11T01:45:01.301Z,36.50
2018-10-11T01:47:30.886Z,39.07
2018-10-11T01:50:00.017Z,39.37
2018-10-11T01:52:29.206Z,36.37
2018-10-11T01:54:58.325Z,36.40
2018-10-11T01:57:27.440Z,39.00
2018-10-11T01:59:56.558Z,37.20
2018-10-11T02:02:25.615Z,35.80
2018-10-11T02:04:55.224Z,35.40
2018-10-11T02:07:24.340Z,35.83
2018-10-11T02:09:53.528Z,39.97
2018-10-11T02:12:22.592Z,43.17
2018-10-11T02:14:51.656Z,40.80
2018-10-11T02:17:20.870Z,38.73
2018-10-11T02:19:49.891Z,38.57
2018-10-11T02:22:19.609Z,42.93
2018-10-11T02:24:49.975Z,37.93
2018-10-11T02:27:19.057Z,32.40
2018-10-11T02:29:48.328Z,40.60
2018-10-11T02:32:18.174Z,41.10
2018-10-11T02:34:47.289Z,39.17
2018-10-11T02:37:17.045Z,37.60
2018-10-11T02:39:46.142Z,41.60
2018-10-11T02:42:15.288Z,35.53
2018-10-11T02:44:44.401Z,41.27
2018-10-11T02:47:13.660Z,37.67
2018-10-11T02:49:43.182Z,39.37
2018-10-11T02:52:12.932Z,37.47
2018-10-11T02:54:42.673Z,35.10
2018-10-11T02:57:22.952Z,38.50
2018-10-11T02:59:52.130Z,38.20
2018-10-11T03:02:21.995Z,37.67
2018-10-11T03:04:51.325Z,34.03
2018-10-11T03:07:20.761Z,38.47
2018-10-11T03:09:49.867Z,39.50
2018-10-11T03:12:19.708Z,32.40
2018-10-11T03:14:49.408Z,35.70
2018-10-11T03:17:18.505Z,41.20
2018-10-11T03:21:17.026Z,33.37
2018-10-11T03:23:46.154Z,41.17
2018-10-11T03:26:15.248Z,31.87
2018-10-11T03:28:45.528Z,35.10
2018-10-11T03:31:14.722Z,36.80
2018-10-11T03:33:43.815Z,36.60
2018-10-11T03:36:12.887Z,38.77
2018-10-11T03:38:42.057Z,38.00
2018-10-11T03:41:11.123Z,37.10
2018-10-11T03:43:40.354Z,41.03
2018-10-11T03:46:09.452Z,33.47
2018-10-11T03:48:38.597Z,38.67
2018-10-11T03:51:08.469Z,35.87
2018-10-11T03:53:37.616Z,35.83
2018-10-11T03:56:06.933Z,35.80
2018-10-11T03:58:36.099Z,31.93
2018-10-11T04:01:05.270Z,35.37
2018-10-11T04:03:34.353Z,37.87
2018-10-11T04:06:03.431Z,32.97
2018-10-11T04:08:32.982Z,33.00
2018-10-11T04:11:02.518Z,36.43
2018-10-11T04:13:31.592Z,38.80
2018-10-11T04:16:00.641Z,38.87
2018-10-11T04:18:29.728Z,37.53
2018-10-11T04:20:58.771Z,34.67
2018-10-11T04:23:29.223Z,33.50
2018-10-11T04:25:59.027Z,33.97
2018-10-11T04:28:29.138Z,35.43
2018-10-11T04:30:59.258Z,33.63
2018-10-11T04:33:29.170Z,35.80
2018-10-11T04:35:58.777Z,32.30
2018-10-11T04:38:28.620Z,36.20
2018-10-11T04:40:57.755Z,34.33
2018-10-11T04:43:27.515Z,31.10
2018-10-11T04:45:56.608Z,36.07
2018-10-11T04:48:25.696Z,40.13
2018-10-11T04:50:54.952Z,32.57
2018-10-11T04:53:24.234Z,36.50
2018-10-11T04:55:53.421Z,37.63
2018-10-11T04:58:22.738Z,35.80
2018-10-11T05:00:51.889Z,33.63
2018-10-11T05:03:20.996Z,36.43
2018-10-11T05:05:50.162Z,34.90
2018-10-11T05:08:20.131Z,34.00
2018-10-11T05:10:49.460Z,34.03
2018-10-11T05:13:18.630Z,42.70
2018-10-11T05:15:47.717Z,37.63
2018-10-11T05:18:17.819Z,34.40
2018-10-11T05:20:46.964Z,33.37
2018-10-11T05:23:16.109Z,35.73
2018-10-11T05:25:45.283Z,33.20
2018-10-11T05:28:14.405Z,31.37
2018-10-11T05:30:45.677Z,36.37
2018-10-11T05:33:15.376Z,31.07
2018-10-11T05:35:44.540Z,30.43
2018-10-11T05:38:13.809Z,36.80
2018-10-11T05:40:42.933Z,29.37
2018-10-11T05:43:13.195Z,32.83
2018-10-11T05:45:43.908Z,38.17
2018-10-11T05:48:13.123Z,34.87
2018-10-11T05:50:42.224Z,28.97
2018-10-11T05:53:11.581Z,34.00
2018-10-11T05:55:40.787Z,32.03
2018-10-11T05:58:10.361Z,30.73
2018-10-11T06:00:40.300Z,33.13
2018-10-11T06:03:09.568Z,24.70
2018-10-11T06:05:39.475Z,31.00
2018-10-11T06:08:08.821Z,30.30
2018-10-11T06:10:41.316Z,25.10
2018-10-11T06:13:11.261Z,26.50
2018-10-11T06:15:40.984Z,26.93
2018-10-11T06:18:11.156Z,26.00
2018-10-11T06:20:40.522Z,23.90
2018-10-11T06:23:10.045Z,21.67
2018-10-11T06:25:39.427Z,28.13
2018-10-11T06:28:12.048Z,21.40
2018-10-11T06:30:41.898Z,22.57
2018-10-11T06:33:11.077Z,31.60
2018-10-11T06:35:40.271Z,19.87
2018-10-11T06:38:10.063Z,23.30
2018-10-11T06:40:40.008Z,20.53
2018-10-11T06:43:09.172Z,22.23
2018-10-11T06:45:38.425Z,19.80
2018-10-11T06:48:09.302Z,22.73
2018-10-11T06:50:39.100Z,22.47
2018-10-11T06:53:11.775Z,21.80
2018-10-11T06:55:41.084Z,23.23
2018-10-11T06:58:10.310Z,20.57
2018-10-11T07:00:40.328Z,22.63
2018-10-11T07:03:09.488Z,19.70
2018-10-11T07:05:38.599Z,18.93
2018-10-11T07:08:07.783Z,18.27
2018-10-11T07:10:36.915Z,18.17
2018-10-11T07:13:06.012Z,19.20
2018-10-11T07:15:35.738Z,19.60
2018-10-11T07:18:05.844Z,29.13
2018-10-11T07:20:35.011Z,16.57
2018-10-11T07:23:04.183Z,20.03
2018-10-11T07:25:33.408Z,16.13
2018-10-11T07:28:02.544Z,20.63
2018-10-11T07:30:31.770Z,15.83
2018-10-11T07:33:00.922Z,17.03
2018-10-11T07:35:30.258Z,15.70
2018-10-11T07:37:59.222Z,16.50
2018-10-11T07:40:28.464Z,18.40
2018-10-11T07:42:58.259Z,16.17
2018-10-11T07:45:27.385Z,14.00
2018-10-11T07:47:56.585Z,14.40
2018-10-11T07:50:25.918Z,20.23
2018-10-11T07:52:55.669Z,14.70
2018-10-11T07:55:24.718Z,13.57
2018-10-11T07:57:53.829Z,15.40
2018-10-11T08:00:22.926Z,15.33
2018-10-11T08:02:52.013Z,15.30
2018-10-11T08:06:50.600Z,17.57
2018-10-11T08:09:19.708Z,13.00
2018-10-11T08:11:49.009Z,14.07
2018-10-11T08:14:18.549Z,15.10
2018-10-11T08:16:48.224Z,14.63
2018-10-11T08:19:17.405Z,19.80
2018-10-11T08:21:46.505Z,18.30
2018-10-11T08:24:16.197Z,20.43
2018-10-11T08:26:45.274Z,14.87
2018-10-11T08:29:14.353Z,16.17
2018-10-11T08:31:43.588Z,15.40
2018-10-11T08:34:13.219Z,15.50
2018-10-11T08:36:42.347Z,15.27
2018-10-11T08:39:12.841Z,15.77
2018-10-11T08:41:42.683Z,14.80
2018-10-11T08:44:13.078Z,17.80
2018-10-11T08:46:42.403Z,16.30
2018-10-11T08:49:11.538Z,17.10
2018-10-11T08:51:40.745Z,15.00
2018-10-11T08:55:19.158Z,15.40
2018-10-11T08:57:48.193Z,15.93
2018-10-11T09:00:17.258Z,17.90
2018-10-11T09:02:46.381Z,16.03
2018-10-11T09:05:15.457Z,15.80
2018-10-11T09:07:44.820Z,15.60
2018-10-11T09:10:14.627Z,17.27
2018-10-11T09:12:43.858Z,15.30
2018-10-11T09:15:13.031Z,15.53
2018-10-11T09:17:42.141Z,14.33
2018-10-11T09:20:11.368Z,20.37
2018-10-11T09:22:40.815Z,18.03
2018-10-11T09:25:09.957Z,17.73
2018-10-11T09:27:39.040Z,19.00
2018-10-11T09:30:08.855Z,14.83
2018-10-11T09:32:38.150Z,14.00
2018-10-11T09:35:07.592Z,15.40
2018-10-11T09:37:36.954Z,14.40
2018-10-11T09:40:06.192Z,16.97
2018-10-11T09:42:35.397Z,14.77
2018-10-11T09:45:04.595Z,17.30
2018-10-11T09:47:33.796Z,16.40
2018-10-11T09:50:03.521Z,15.83
2018-10-11T09:52:32.645Z,14.60
2018-10-11T09:55:01.760Z,14.30
2018-10-11T09:57:33.836Z,14.03
2018-10-11T10:00:04.483Z,12.63
2018-10-11T10:02:33.597Z,15.47
2018-10-11T10:05:03.860Z,14.13
2018-10-11T10:07:33.085Z,15.60
2018-10-11T10:10:02.842Z,17.07
2018-10-11T10:12:32.461Z,14.10
2018-10-11T10:15:01.527Z,17.03
2018-10-11T10:17:30.754Z,14.20
2018-10-11T10:20:00.249Z,14.33
2018-10-11T10:22:29.372Z,14.17
2018-10-11T10:24:59.444Z,15.20
2018-10-11T10:27:29.364Z,14.73
2018-10-11T10:29:58.442Z,12.87
2018-10-11T10:32:27.561Z,15.00
2018-10-11T10:34:56.808Z,14.50
2018-10-11T10:37:25.914Z,13.77
2018-10-11T10:39:55.147Z,12.73
2018-10-11T10:42:24.424Z,12.70
2018-10-11T10:44:53.540Z,13.33
2018-10-11T10:47:22.738Z,12.73
2018-10-11T10:49:51.976Z,13.53
2018-10-11T10:52:21.065Z,13.60
2018-10-11T10:54:50.180Z,13.17
2018-10-11T10:57:20.041Z,13.13
2018-10-11T10:59:49.148Z,12.57
2018-10-11T11:02:18.420Z,13.23
2018-10-11T11:04:47.527Z,12.60
2018-10-11T11:07:16.775Z,11.60
2018-10-11T11:09:46.442Z,12.13
2018-10-11T11:12:15.505Z,10.57
2018-10-11T11:14:45.365Z,12.60
2018-10-11T11:17:14.572Z,11.03
2018-10-11T11:19:44.588Z,12.43
2018-10-11T11:22:13.744Z,11.20
2018-10-11T11:24:42.952Z,14.33
2018-10-11T11:27:12.167Z,11.70
2018-10-11T11:29:41.270Z,10.70
2018-10-11T11:32:10.402Z,9.90
2018-10-11T11:34:39.509Z,10.07
2018-10-11T11:37:09.234Z,9.87
2018-10-11T11:39:38.291Z,10.93
2018-10-11T11:42:07.525Z,11.93
2018-10-11T11:44:36.729Z,10.37
2018-10-11T11:47:06.176Z,8.70
2018-10-11T11:49:35.271Z,8.90
2018-10-11T11:52:04.541Z,7.97
2018-10-11T11:54:33.604Z,8.83
2018-10-11T11:57:02.672Z,9.10
2018-10-11T11:59:31.892Z,8.90
2018-10-11T12:02:01.163Z,7.47
2018-10-11T12:04:30.322Z,8.53
2018-10-11T12:06:59.488Z,8.27
2018-10-11T12:09:28.893Z,6.60
2018-10-11T12:11:58.016Z,7.33
2018-10-11T12:14:27.117Z,8.20
2018-10-11T12:16:56.900Z,6.40
2018-10-11T12:19:26.196Z,6.80
2018-10-11T12:21:56.690Z,6.50
2018-10-11T12:24:25.913Z,7.93
2018-10-11T12:26:55.154Z,13.30
2018-10-11T12:29:24.889Z,6.70
2018-10-11T12:31:54.153Z,7.60
2018-10-11T12:34:23.387Z,9.03
2018-10-11T12:36:52.667Z,7.37
2018-10-11T12:39:22.953Z,6.00
2018-10-11T12:41:52.050Z,6.07
2018-10-11T12:44:21.286Z,7.00
2018-10-11T12:46:50.504Z,7.30
2018-10-11T12:49:19.652Z,8.77
2018-10-11T12:51:48.811Z,6.80
2018-10-11T12:54:18.110Z,6.70
2018-10-11T12:56:47.474Z,7.03
2018-10-11T12:59:16.824Z,8.17
2018-10-11T13:01:46.901Z,6.23
2018-10-11T13:04:15.954Z,7.70
2018-10-11T13:06:45.045Z,5.80
2018-10-11T13:09:14.421Z,5.80
2018-10-11T13:11:43.551Z,5.33
2018-10-11T13:14:12.611Z,6.80
2018-10-11T13:16:41.793Z,6.07
2018-10-11T13:19:10.902Z,6.70
2018-10-11T13:21:40.223Z,6.07
2018-10-11T13:24:09.644Z,6.37
2018-10-11T13:26:38.789Z,6.07
2018-10-11T13:29:07.900Z,5.43
2018-10-11T13:31:37.037Z,6.57
2018-10-11T13:34:06.208Z,6.10
2018-10-11T13:36:35.393Z,6.80
2018-10-11T13:39:05.724Z,6.37
2018-10-11T13:41:35.020Z,6.10
2018-10-11T13:44:04.063Z,5.87
2018-10-11T13:46:33.288Z,10.83
2018-10-11T13:49:02.424Z,5.80
2018-10-11T13:51:31.569Z,5.43
2018-10-11T13:54:00.746Z,6.63
2018-10-11T13:56:29.834Z,5.93
2018-10-11T13:58:59.080Z,6.30
2018-10-11T14:01:28.859Z,5.67
2018-10-11T14:03:59.466Z,5.80
2018-10-11T14:06:28.577Z,6.57
2018-10-11T14:08:57.708Z,8.43
2018-10-11T14:11:27.000Z,5.80
2018-10-11T14:13:56.827Z,8.27
2018-10-11T14:16:26.663Z,6.13
2018-10-11T14:18:55.920Z,6.27
2018-10-11T14:21:25.194Z,5.70
2018-10-11T14:23:54.406Z,6.60
2018-10-11T14:27:53.144Z,9.90
2018-10-11T14:30:22.234Z,5.47
2018-10-11T14:32:51.418Z,6.47
2018-10-11T14:35:20.540Z,7.37
2018-10-11T14:37:49.733Z,5.70
2018-10-11T14:40:18.893Z,6.23
2018-10-11T14:42:48.589Z,7.30
2018-10-11T14:45:17.947Z,7.67
2018-10-11T14:47:47.250Z,6.33
2018-10-11T14:50:16.350Z,6.60
2018-10-11T14:52:45.440Z,8.97
2018-10-11T14:55:15.011Z,6.23
2018-10-11T14:57:44.086Z,9.33
2018-10-11T15:00:13.229Z,7.00
2018-10-11T15:02:43.083Z,6.80
2018-10-11T15:05:12.202Z,6.40
2018-10-11T15:07:41.283Z,6.63
2018-10-11T15:10:10.374Z,7.27
2018-10-11T15:12:39.464Z,8.37
2018-10-11T15:15:08.589Z,9.13
2018-10-11T15:17:37.816Z,7.27
2018-10-11T15:20:07.385Z,11.73
2018-10-11T15:22:36.495Z,7.20
2018-10-11T15:25:06.441Z,10.13
2018-10-11T15:27:35.651Z,7.33
2018-10-11T15:30:05.046Z,7.73
2018-10-11T15:32:34.096Z,7.10
2018-10-11T15:35:03.295Z,6.77
2018-10-11T15:37:32.937Z,8.10
2018-10-11T15:40:01.998Z,7.90
2018-10-11T15:42:32.418Z,8.30
2018-10-11T15:45:01.699Z,11.30
2018-10-11T15:47:31.610Z,9.47
2018-10-11T15:50:00.821Z,7.97
2018-10-11T15:52:30.132Z,6.90
2018-10-11T15:54:59.200Z,7.83
2018-10-11T15:57:28.979Z,8.00
2018-10-11T15:59:58.155Z,9.43
2018-10-11T16:02:27.265Z,11.47
2018-10-11T16:04:56.346Z,7.80
2018-10-11T16:07:25.564Z,13.13
2018-10-11T16:09:54.687Z,7.63
2018-10-11T16:12:23.905Z,10.03
2018-10-11T16:14:52.991Z,13.27
2018-10-11T16:17:22.979Z,8.67
2018-10-11T16:19:53.759Z,14.40
2018-10-11T16:22:22.849Z,8.03
2018-10-11T16:24:52.015Z,11.07
2018-10-11T16:27:22.421Z,7.93
2018-10-11T16:29:51.513Z,8.13
2018-10-11T16:32:20.709Z,11.63
2018-10-11T16:34:50.624Z,6.73
2018-10-11T16:37:19.745Z,7.43
2018-10-11T16:39:49.469Z,9.57
2018-10-11T16:42:18.831Z,8.90
2018-10-11T16:44:48.036Z,7.73
2018-10-11T16:47:17.088Z,9.33
2018-10-11T16:49:47.030Z,11.73
2018-10-11T16:52:16.208Z,10.63
2018-10-11T16:54:46.079Z,9.13
2018-10-11T16:57:16.292Z,9.40
2018-10-11T16:59:45.804Z,8.17
2018-10-11T17:02:15.269Z,10.83
2018-10-11T17:04:44.320Z,7.77
2018-10-11T17:07:13.383Z,11.40
2018-10-11T17:09:42.612Z,9.30
2018-10-11T17:12:11.802Z,9.47
2018-10-11T17:14:40.989Z,11.83
2018-10-11T17:17:10.100Z,9.07
2018-10-11T17:19:39.308Z,10.73
2018-10-11T17:22:08.427Z,11.50
2018-10-11T17:24:37.522Z,11.10
2018-10-11T17:27:06.826Z,8.90
2018-10-11T17:29:35.975Z,9.70
2018-10-11T17:32:05.568Z,18.63
2018-10-11T17:34:34.800Z,9.40
2018-10-11T17:37:03.911Z,9.20
2018-10-11T17:39:32.960Z,10.23
2018-10-11T17:42:02.061Z,9.80
2018-10-11T17:44:31.324Z,9.50
2018-10-11T17:47:00.433Z,9.63
2018-10-11T17:49:29.661Z,18.87
2018-10-11T17:51:58.966Z,10.63
2018-10-11T17:54:28.049Z,8.63
2018-10-11T17:56:57.596Z,9.97
2018-10-11T17:59:26.852Z,10.80
2018-10-11T18:01:55.969Z,15.90
2018-10-11T18:04:25.077Z,11.83
2018-10-11T18:06:54.270Z,11.63
2018-10-11T18:09:23.373Z,15.33
2018-10-11T18:11:52.420Z,11.30
2018-10-11T18:14:21.782Z,14.97
2018-10-11T18:18:20.335Z,12.70
2018-10-11T18:20:49.442Z,12.47
2018-10-11T18:23:18.608Z,16.13
2018-10-11T18:25:47.704Z,16.97
2018-10-11T18:28:16.959Z,14.83
2018-10-11T18:30:46.170Z,11.07
2018-10-11T18:33:16.072Z,12.53
2018-10-11T18:35:45.292Z,11.93
2018-10-11T18:38:14.249Z,14.00
2018-10-11T18:40:43.659Z,18.90
2018-10-11T18:43:12.842Z,12.97
2018-10-11T18:45:42.587Z,12.80
2018-10-11T18:48:11.805Z,40.67
2018-10-11T18:50:40.913Z,13.87
2018-10-11T18:53:10.089Z,18.77
2018-10-11T18:55:39.128Z,13.80
2018-10-11T18:58:08.448Z,21.63
2018-10-11T19:00:37.585Z,13.17
2018-10-11T19:03:06.666Z,12.53
2018-10-11T19:05:35.761Z,11.90
2018-10-11T19:08:05.004Z,16.50
2018-10-11T19:10:34.396Z,13.27
2018-10-11T19:13:04.516Z,12.03
2018-10-11T19:15:33.609Z,16.80
2018-10-11T19:18:02.717Z,10.90
2018-10-11T19:20:31.872Z,10.40
2018-10-11T19:23:00.965Z,11.70
2018-10-11T19:25:30.716Z,10.13
2018-10-11T19:28:00.257Z,10.10
2018-10-11T19:30:29.473Z,9.07
2018-10-11T19:32:58.700Z,9.07
2018-10-11T19:35:27.773Z,9.77
2018-10-11T19:39:26.496Z,11.00
2018-10-11T19:41:56.434Z,11.20
2018-10-11T19:44:25.516Z,7.93
2018-10-11T19:46:54.589Z,10.47
2018-10-11T19:49:24.446Z,7.67
2018-10-11T19:51:53.565Z,10.47
2018-10-11T19:54:22.646Z,13.80
2018-10-11T19:56:53.078Z,9.30
2018-10-11T19:59:22.181Z,8.67
2018-10-11T20:01:51.440Z,8.70
2018-10-11T20:04:20.472Z,10.40
2018-10-11T20:06:49.764Z,10.77
2018-10-11T20:09:18.839Z,10.50
2018-10-11T20:11:48.120Z,9.07
2018-10-11T20:14:17.937Z,9.10
2018-10-11T20:16:47.009Z,9.30
2018-10-11T20:19:16.198Z,10.73
2018-10-11T20:21:45.457Z,10.30
2018-10-11T20:24:14.504Z,10.40
2018-10-11T20:26:43.711Z,11.23
2018-10-11T20:29:13.633Z,12.30
2018-10-11T20:31:42.890Z,10.63
2018-10-11T20:34:12.074Z,9.77
2018-10-11T20:36:41.307Z,10.40
2018-10-11T20:39:11.255Z,10.90
2018-10-11T20:41:40.345Z,9.90
2018-10-11T20:44:09.505Z,11.60
2018-10-11T20:46:38.819Z,15.33
2018-10-11T20:49:08.566Z,10.47
2018-10-11T20:51:38.632Z,10.83
2018-10-11T20:54:07.668Z,13.70
2018-10-11T20:56:36.858Z,10.40
2018-10-11T20:59:06.303Z,10.30
2018-10-11T21:01:35.395Z,12.53
2018-10-11T21:04:04.463Z,10.10
2018-10-11T21:06:33.593Z,9.97
2018-10-11T21:09:02.744Z,11.00
2018-10-11T21:11:31.790Z,10.03
2018-10-11T21:14:01.670Z,11.30
2018-10-11T21:16:31.228Z,12.83
2018-10-11T21:19:00.490Z,11.40
2018-10-11T21:21:29.873Z,10.00
2018-10-11T21:23:58.951Z,11.60
2018-10-11T21:26:28.499Z,10.20
2018-10-11T21:28:57.981Z,10.90
2018-10-11T21:31:27.074Z,15.80
2018-10-11T21:33:56.208Z,16.13
2018-10-11T21:36:25.290Z,13.47
2018-10-11T21:38:54.478Z,13.37
2018-10-11T21:41:24.428Z,13.97
2018-10-11T21:43:53.566Z,16.80
2018-10-11T21:46:23.444Z,12.23
2018-10-11T21:53:31.116Z,16.53
2018-10-11T21:56:00.225Z,14.27
2018-10-11T21:58:29.299Z,11.93
2018-10-11T22:01:03.852Z,12.13
2018-10-11T22:03:33.500Z,12.47
2018-10-11T22:06:02.631Z,14.90
2018-10-11T22:08:31.756Z,13.57
2018-10-11T22:11:00.852Z,13.77
2018-10-11T22:13:29.924Z,14.53
2018-10-11T22:15:59.005Z,13.17
2018-10-11T22:18:28.624Z,12.33
2018-10-11T22:20:57.761Z,15.43
2018-10-11T22:23:26.785Z,12.43
2018-10-11T22:25:55.880Z,14.67
2018-10-11T22:28:25.133Z,13.13
2018-10-11T22:30:54.834Z,13.77
2018-10-11T22:33:24.614Z,13.90
2018-10-11T22:35:54.055Z,12.40
2018-10-11T22:38:23.259Z,12.20
2018-10-11T22:40:52.476Z,13.03
2018-10-11T22:43:21.661Z,16.53
2018-10-11T22:45:50.807Z,12.50
2018-10-11T22:48:19.880Z,13.33
2018-10-11T22:50:49.103Z,14.90
2018-10-11T22:53:18.303Z,13.97
2018-10-11T22:55:47.578Z,16.30
2018-10-11T22:58:16.991Z,13.10
2018-10-11T23:00:46.842Z,14.63
2018-10-11T23:03:16.096Z,13.10
2018-10-11T23:05:45.490Z,15.30
2018-10-11T23:08:14.538Z,12.27
2018-10-11T23:10:43.624Z,14.73
2018-10-11T23:13:12.712Z,10.30
2018-10-11T23:15:41.909Z,13.20
2018-10-11T23:18:11.146Z,12.37
2018-10-11T23:20:41.029Z,13.60
2018-10-11T23:23:10.709Z,13.93
2018-10-11T23:25:39.866Z,12.23
2018-10-11T23:28:09.043Z,16.23
2018-10-11T23:30:38.192Z,13.80
2018-10-11T23:33:07.989Z,13.00
2018-10-11T23:35:37.069Z,14.10
2018-10-11T23:38:06.799Z,11.77
2018-10-11T23:40:36.022Z,14.30
2018-10-11T23:43:05.256Z,14.67
2018-10-11T23:45:34.402Z,10.93
2018-10-11T23:48:03.497Z,14.00
2018-10-11T23:50:32.641Z,14.77
2018-10-11T23:53:01.889Z,14.07
2018-10-11T23:55:32.428Z,12.57
2018-10-11T23:58:02.320Z,13.43
